A- A+ FrançaisEnglishEspañol中国

Services sur Internet Soldes sur Internet Des idées de cadeaux Météo Météo aéro

La météo à : Autours de vous Avignon Pujaut Tarbes-Lourdes-PyrénéesEu-Mers-Le-Treport Chambery-Aix-Les-Bains

La météo aéronautique pour les pilotes, la préparation du vol avec les METAR (METeorological Aerodrome Report, message d'observation des conditions météorologiques pour l'aviation) et Les TAF (Terminal Aerodrome Forecast : message de prévision à court terme des conditions météorologiques pour l'aviation). Et les autres ressources comme les VAC (Visual Approch Chart) et les NOTAM (Notice To Airman) pour préprer les vols.

Aéroport Benbecula (Royaume-Uni) / OACI EGPL/ IATA BEB

L'altitude de l'aéroport Benbecula est de 6 m = 20 ft. Il est situé à proximité de Balivanich (Royaume-Uni). La météo générale à 5 jours est disponible pour Eilean Siar situé à 23.7 km.

METAR de l'aéroport Benbecula - EGPL

EGPL 091850Z AUTO 12005KT 9999 NCD 06/M00 Q1010

Décodage du METAR de l'aéroport Benbecula (GB)

METAR émis par EGPL le samedi 9 novembre 2019 à 18:50 heure TU. C'est un METAR généré automatiquement. Attention ce METAR est obsolète car il a été émis il y a 21 heure et 47 minutes.

La visibilité est de supérieure à 10 km = supérieure à 6.2 sm.

La température est de 6°C = 43 °F et le point rosée est de 0°C = 32 °F . Ce qui correspond à 65% d'humidité relative.

Le QNH est de 1010 hPa = 29.83 inHg

Vent de 5 kt = 9 km/h, orienté à 120°.

Pas de nuages.

TAF de l'aéroport Benbecula - EGPL

EGPL 301355Z 3015/3017 14007KT 9999 SCT030

EGPL 301355Z 3015/3017 14007KT 9999 nuages épars à 030

Aéroport à proximité de Benbecula

Météo générale à 5 jours à Eilean Siar (23.7 km)Aéroport Barra (Beach) (51 km)Aéroport Stornoway (102 km)Aéroport Tiree (113 km)Aéroport Inverness (198 km)Aéroport Islay (211 km)Aéroport Kinloss (227 km)

Vue aérienne de l'aéroport Benbecula

NOTAM de l'aéroport Benbecula

Les NOTAM sont fournis sans aucune garantie de leur actualité. Le pilote est le seul responsable de la vérification de sa validité avant de l'utiliser opérationnellement pour préparer un vol ou l'utiliser lors de sa navigation.

Pas de NOTAM

Sources des données